KDLH/DLH METAR and TAF weather

Enter ICAO airport designator
Station Type Date Time Source
KDLH METAR 2019/12/16 03:35 UTC NOAA

KDLH 160335Z 24010KT 7SM OVC014 M14/M17 A2995 RMK AO2 T11441172


Station Type Date Time Source
KDLH Decoded METAR 2019/12/16 03:35 UTC NOAA

Duluth, Duluth International Airport, MN, United States (KDLH) 46-50-34N 092-13-34W 435M
Dec 15, 2019 - 10:35 PM EST / 2019.12.16 0335 UTC
Wind: from the WSW (240 degrees) at 12 MPH (10 KT):0
Visibility: 7 mile(s):0
Sky conditions: overcast
Temperature: 6.1 F (-14.4 C)
Windchill: -9 F (-23 C):2
Dew Point: 1.0 F (-17.2 C)
Relative Humidity: 79%
Pressure (altimeter): 29.95 in. Hg (1014 hPa)
ob: KDLH 160335Z 24010KT 7SM OVC014 M14/M17 A2995 RMK AO2 T11441172
cycle: 3

Station Type Date Time Source
KDLH TAF 2019/12/16 01:59 UTC NOAA

TAF
AMD KDLH 160059Z 1601/1624 23009KT P6SM -SN BKN018 OVC025
FM160400 23010KT P6SM -SN BKN018 OVC050
FM160900 26010KT P6SM VCSH BKN016
FM161600 28011KT P6SM SCT016

Example: see airport list